Lincoln, Nebraska
Current Conditions -  °F | °C
As of 2:54 AM on Wednesday 28 Jan 2015 (Local Time) from KLNK Reporting Station
Clear Clear  
Wind Chill: 32°   Ceiling: Unl
Heat Index: 37°   Visibility: 10mi
Dew Point: 29°   Wind: 7mph
Humidity: 73%   Direction: 140°SE
Pressure: 29.92"   Gusts: NA
Location:  40.81°N, 96.71°W
Report Text: KLNK 280854Z AUTO 14006KT 10SM CLR 03/M02 A2992 RMK AO2 SLP133 T00281017 56016
Loading
Personal Weather Stations






























Interactive Weather Map New forecast layout! Learn more

10-Day Weather Forecast

Advertisements
Track Severe Weather on mobile